Aviation Digital Data Service (ADDS)

Output produced by METARs form (0923 UTC 31 July 2014)
found at http://aviationweather.gov/adds/metars/
 
KBPT 310853Z 16005KT 10SM CLR 26/22 A2996 RMK AO2 SLP146 T02560222 58009